Time;durP1;ratioP1;P1;durP2;ratioP2;P2;SDS_P1;SDS_P2;PMS_P1;PMS_P2;Temp;Humidity;BMP_temperature;BMP_pressure;BME280_temperature;BME280_humidity;BME280_pressure;Samples;Min_cycle;Max_cycle;Signal;HPM_P1;HPM_P2
2023/05/01 00:00:56;;;;;;;5.80;4.03;;;10.50;99.90;;;;;;4973436;28;20260;-77
2023/05/01 00:03:23;;;;;;;4.57;3.97;;;10.50;99.90;;;;;;4956787;29;20284;-81
2023/05/01 00:05:50;;;;;;;3.60;3.30;;;10.50;99.90;;;;;;4955805;28;20205;-82
2023/05/01 00:08:18;;;;;;;5.33;4.83;;;10.50;99.90;;;;;;4964600;28;20201;-81
2023/05/01 00:10:45;;;;;;;5.03;4.40;;;10.40;99.90;;;;;;4976154;28;20215;-79
2023/05/01 00:13:12;;;;;;;5.00;4.50;;;10.40;99.90;;;;;;4975953;28;20205;-82
2023/05/01 00:15:42;;;;;;;4.20;3.80;;;10.30;99.90;;;;;;4975235;28;20223;-81
2023/05/01 00:18:09;;;;;;;4.80;3.90;;;10.30;99.90;;;;;;4975627;28;20291;-82
2023/05/01 00:20:35;;;;;;;4.30;3.90;;;10.30;99.90;;;;;;4975126;28;20668;-78
2023/05/01 00:23:02;;;;;;;5.17;4.00;;;10.20;99.90;;;;;;4976262;28;20718;-80
2023/05/01 00:25:31;;;;;;;4.97;4.07;;;10.20;99.90;;;;;;4970336;28;20209;-81
2023/05/01 00:27:58;;;;;;;5.13;3.97;;;10.20;99.90;;;;;;4956555;28;20737;-82
2023/05/01 00:30:26;;;;;;;4.23;3.40;;;10.20;99.90;;;;;;4955736;28;20594;-81
2023/05/01 00:32:53;;;;;;;4.67;4.13;;;10.20;99.90;;;;;;4955637;28;20197;-83
2023/05/01 00:35:20;;;;;;;4.80;4.00;;;10.20;99.90;;;;;;4957013;28;20578;-82
2023/05/01 00:37:47;;;;;;;3.73;3.40;;;10.20;99.90;;;;;;4955873;28;20633;-81
2023/05/01 00:40:14;;;;;;;5.43;3.83;;;10.20;99.90;;;;;;4957279;29;20273;-81
2023/05/01 00:42:42;;;;;;;4.97;4.47;;;10.10;99.90;;;;;;4969384;28;20211;-83
2023/05/01 00:45:10;;;;;;;4.77;4.00;;;10.10;99.90;;;;;;4976149;28;20288;-82
2023/05/01 00:47:37;;;;;;;3.80;3.50;;;10.10;99.90;;;;;;4975278;28;20236;-82
2023/05/01 00:50:05;;;;;;;4.10;3.70;;;10.10;99.90;;;;;;4975842;28;20287;-81
2023/05/01 00:52:32;;;;;;;4.23;3.30;;;10.00;99.90;;;;;;4975334;28;20197;-82
2023/05/01 00:54:59;;;;;;;4.23;3.83;;;10.00;99.90;;;;;;4975229;28;20211;-83
2023/05/01 00:57:26;;;;;;;4.23;3.83;;;10.00;99.90;;;;;;4975236;28;20552;-83
2023/05/01 00:59:54;;;;;;;4.00;3.20;;;9.90;99.90;;;;;;4975547;28;20197;-81
2023/05/01 01:02:21;;;;;;;4.10;3.70;;;9.90;99.90;;;;;;4975094;28;20207;-82
2023/05/01 01:04:48;;;;;;;5.43;4.20;;;9.80;99.90;;;;;;4974148;28;20761;-82
2023/05/01 01:07:23;;;;;;;4.70;4.20;;;9.80;99.90;;;;;;4974257;28;20227;-79
2023/05/01 01:10:03;;;;;;;3.80;3.50;;;9.70;99.90;;;;;;4974462;28;20695;-82
2023/05/01 01:12:34;;;;;;;5.57;4.10;;;9.70;99.90;;;;;;4974136;28;20209;-81
2023/05/01 01:15:14;;;;;;;4.50;4.10;;;9.60;99.90;;;;;;4973001;28;20236;-82
2023/05/01 01:17:48;;;;;;;5.13;4.27;;;9.70;99.90;;;;;;4973125;28;20235;-83
2023/05/01 01:20:33;;;;;;;6.77;3.80;;;9.70;99.90;;;;;;4973136;28;20200;-81
2023/05/01 01:23:35;;;;;;;4.43;3.70;;;9.60;99.90;;;;;;4973042;28;20192;-81
2023/05/01 01:26:37;;;;;;;4.27;3.83;;;9.60;99.90;;;;;;4956031;29;20199;-82
2023/05/01 01:29:40;;;;;;;5.10;3.93;;;9.60;99.90;;;;;;4955663;29;20667;-81
2023/05/01 01:32:23;;;;;;;4.03;3.63;;;9.60;99.90;;;;;;4955630;29;20197;-83
2023/05/01 01:34:55;;;;;;;5.97;4.33;;;9.50;99.90;;;;;;4973632;28;20201;-82
2023/05/01 01:37:26;;;;;;;5.80;3.90;;;9.50;99.90;;;;;;4974276;28;20203;-82
2023/05/01 01:39:58;;;;;;;4.47;3.80;;;9.40;99.90;;;;;;4974056;28;20239;-81
2023/05/01 01:42:30;;;;;;;4.97;3.70;;;9.50;99.90;;;;;;4974380;28;20196;-82
2023/05/01 01:45:03;;;;;;;4.97;3.93;;;9.40;99.90;;;;;;4972800;28;20192;-80
2023/05/01 01:47:34;;;;;;;5.60;4.43;;;9.40;99.90;;;;;;4974453;28;20207;-80
2023/05/01 01:50:07;;;;;;;4.40;3.90;;;9.40;99.90;;;;;;4973156;28;20240;-82
2023/05/01 01:52:37;;;;;;;5.03;4.20;;;9.40;99.90;;;;;;4974179;28;20306;-82
2023/05/01 01:55:07;;;;;;;5.43;4.53;;;9.30;99.90;;;;;;4973720;28;20283;-82
2023/05/01 01:57:36;;;;;;;4.40;4.00;;;9.30;99.90;;;;;;4973457;28;20203;-79
2023/05/01 02:00:07;;;;;;;5.40;4.13;;;9.30;99.90;;;;;;4973604;28;20192;-82
2023/05/01 02:02:38;;;;;;;4.63;3.90;;;9.30;99.90;;;;;;4974500;28;20744;-79
2023/05/01 02:05:08;;;;;;;4.83;4.10;;;9.20;99.90;;;;;;4972736;28;20208;-77
2023/05/01 02:07:37;;;;;;;6.07;4.43;;;9.20;99.90;;;;;;4974243;28;20256;-82
2023/05/01 02:10:06;;;;;;;6.27;3.90;;;9.20;99.90;;;;;;4973074;28;20291;-77
2023/05/01 02:12:34;;;;;;;4.47;3.97;;;9.20;99.90;;;;;;4973008;28;20205;-77
2023/05/01 02:15:01;;;;;;;6.43;4.13;;;9.20;99.90;;;;;;4973790;28;20207;-77
2023/05/01 02:17:29;;;;;;;4.73;3.97;;;9.20;99.90;;;;;;4977336;28;20205;-80
2023/05/01 02:19:57;;;;;;;7.53;3.93;;;9.10;99.90;;;;;;4976240;28;20205;-75
2023/05/01 02:22:26;;;;;;;5.00;4.50;;;9.10;99.90;;;;;;4977022;28;20215;-77
2023/05/01 02:24:54;;;;;;;4.70;4.27;;;9.10;99.90;;;;;;4977116;28;20242;-79
2023/05/01 02:27:24;;;;;;;5.27;3.90;;;9.10;99.90;;;;;;4976523;28;20256;-75
2023/05/01 02:29:52;;;;;;;4.37;3.97;;;9.10;99.90;;;;;;4976351;28;20287;-77
2023/05/01 02:32:19;;;;;;;5.17;3.43;;;9.10;99.90;;;;;;4976099;28;20215;-82
2023/05/01 02:34:46;;;;;;;5.60;4.03;;;9.10;99.90;;;;;;4977453;28;20229;-77
2023/05/01 02:37:13;;;;;;;5.17;3.60;;;9.10;99.90;;;;;;4977025;28;20196;-77
2023/05/01 02:39:42;;;;;;;5.67;3.80;;;9.00;99.90;;;;;;4976226;28;20664;-80
2023/05/01 02:42:11;;;;;;;4.57;3.80;;;9.00;99.90;;;;;;4977520;28;20601;-79
2023/05/01 02:44:41;;;;;;;5.77;3.67;;;9.00;99.90;;;;;;4977387;28;20209;-82
2023/05/01 02:47:10;;;;;;;5.20;3.63;;;9.00;99.90;;;;;;4976994;28;20856;-82
2023/05/01 02:49:39;;;;;;;5.90;4.10;;;9.00;99.90;;;;;;4977419;28;20233;-80
2023/05/01 02:52:07;;;;;;;4.23;3.70;;;9.00;99.90;;;;;;4977426;28;20210;-83
2023/05/01 02:54:34;;;;;;;4.63;3.73;;;9.00;99.90;;;;;;4977024;28;20196;-82
2023/05/01 02:57:05;;;;;;;4.07;3.67;;;9.00;99.90;;;;;;4976390;28;20272;-76
2023/05/01 02:59:32;;;;;;;4.07;3.27;;;9.00;99.90;;;;;;4977551;28;20250;-81
2023/05/01 03:01:59;;;;;;;3.80;2.90;;;9.00;99.90;;;;;;4977095;28;20212;-82
2023/05/01 03:04:26;;;;;;;6.23;3.47;;;9.00;99.90;;;;;;4976216;28;20220;-78
2023/05/01 03:06:53;;;;;;;5.13;4.37;;;9.00;99.90;;;;;;4977069;28;20577;-81
2023/05/01 03:09:21;;;;;;;6.90;3.77;;;9.00;99.90;;;;;;4976378;28;20204;-82
2023/05/01 03:11:48;;;;;;;4.50;3.27;;;9.00;99.90;;;;;;4977471;28;20196;-81
2023/05/01 03:14:16;;;;;;;5.07;3.70;;;8.90;99.90;;;;;;4977695;28;20454;-83
2023/05/01 03:16:43;;;;;;;4.63;3.50;;;8.90;99.90;;;;;;4977164;28;20209;-83
2023/05/01 03:19:10;;;;;;;3.90;3.10;;;8.90;99.90;;;;;;4977052;28;20279;-82
2023/05/01 03:21:37;;;;;;;3.97;3.17;;;8.90;99.90;;;;;;4976872;28;21008;-82
2023/05/01 03:24:04;;;;;;;3.43;2.80;;;8.90;99.90;;;;;;4976672;28;20383;-83
2023/05/01 03:26:31;;;;;;;3.17;2.87;;;8.90;99.90;;;;;;4976700;28;20288;-82
2023/05/01 03:28:58;;;;;;;4.93;2.90;;;8.80;99.90;;;;;;4976032;28;20200;-83
2023/05/01 03:31:27;;;;;;;5.53;3.20;;;8.80;99.90;;;;;;4977445;28;20291;-83
2023/05/01 03:33:54;;;;;;;4.17;3.50;;;8.80;99.90;;;;;;4976606;28;20869;-82
2023/05/01 03:36:22;;;;;;;3.20;2.90;;;8.80;99.90;;;;;;4975905;28;20204;-83
2023/05/01 03:38:49;;;;;;;3.23;2.90;;;8.80;99.90;;;;;;4977141;28;20504;-83
2023/05/01 03:41:16;;;;;;;3.90;3.10;;;8.80;99.90;;;;;;4977033;28;20209;-82
2023/05/01 03:43:43;;;;;;;4.60;3.60;;;8.80;99.90;;;;;;4973762;28;20209;-83
2023/05/01 03:46:10;;;;;;;5.43;3.63;;;8.70;99.90;;;;;;4956812;29;20239;-82
2023/05/01 03:48:38;;;;;;;4.77;3.60;;;8.70;99.90;;;;;;4955798;29;20260;-82
2023/05/01 03:51:05;;;;;;;4.33;3.10;;;8.60;99.90;;;;;;4937915;29;20198;-81
2023/05/01 03:53:32;;;;;;;4.50;3.80;;;8.60;99.90;;;;;;4938412;29;20206;-82
2023/05/01 03:55:59;;;;;;;5.90;4.17;;;8.60;99.90;;;;;;4941382;29;20302;-83
2023/05/01 03:58:26;;;;;;;5.90;4.23;;;8.50;99.90;;;;;;4956714;29;20235;-83
2023/05/01 04:00:55;;;;;;;4.90;3.90;;;8.50;99.90;;;;;;4957501;29;20205;-82
2023/05/01 04:03:22;;;;;;;4.27;3.87;;;8.50;99.90;;;;;;4956500;29;20296;-79
2023/05/01 04:05:51;;;;;;;4.10;3.70;;;8.50;99.90;;;;;;4954171;29;20789;-83
2023/05/01 04:08:18;;;;;;;4.27;3.30;;;8.50;99.90;;;;;;4938236;29;20205;-83
2023/05/01 04:10:45;;;;;;;3.73;3.27;;;8.50;99.90;;;;;;4937245;29;20214;-82
2023/05/01 04:13:12;;;;;;;4.70;3.53;;;8.50;99.90;;;;;;4948346;29;20209;-83
2023/05/01 04:15:39;;;;;;;4.27;3.60;;;8.50;99.90;;;;;;4956447;29;20264;-83
2023/05/01 04:18:06;;;;;;;4.17;3.77;;;8.50;99.90;;;;;;4956047;29;20285;-82
2023/05/01 04:20:33;;;;;;;4.03;3.40;;;8.50;99.90;;;;;;4956793;29;20291;-80
2023/05/01 04:23:01;;;;;;;3.97;3.57;;;8.50;99.90;;;;;;4956211;29;20288;-81
2023/05/01 04:25:28;;;;;;;4.57;3.73;;;8.40;99.90;;;;;;4955787;29;20209;-82
2023/05/01 04:27:56;;;;;;;5.00;4.17;;;8.40;99.90;;;;;;4956692;29;20288;-83
2023/05/01 04:30:23;;;;;;;4.60;3.67;;;8.40;99.90;;;;;;4956809;29;20201;-81
2023/05/01 04:32:50;;;;;;;4.40;3.80;;;8.40;99.90;;;;;;4955004;29;20201;-81
2023/05/01 04:35:17;;;;;;;3.87;3.00;;;8.40;99.90;;;;;;4939658;29;20537;-81
2023/05/01 04:37:44;;;;;;;3.73;3.20;;;8.40;99.90;;;;;;4936831;29;20229;-82
2023/05/01 04:40:13;;;;;;;4.30;3.90;;;8.40;99.90;;;;;;4939542;29;20280;-82
2023/05/01 04:42:41;;;;;;;4.87;3.83;;;8.50;99.90;;;;;;4955822;29;20561;-82
2023/05/01 04:45:08;;;;;;;4.20;3.60;;;8.40;99.90;;;;;;4955980;29;20288;-82
2023/05/01 04:47:35;;;;;;;4.73;3.77;;;8.50;99.90;;;;;;4955583;28;20205;-82
2023/05/01 04:50:02;;;;;;;4.97;4.00;;;8.50;99.90;;;;;;4968401;28;20233;-81
2023/05/01 04:52:29;;;;;;;5.97;4.13;;;8.50;99.90;;;;;;4975907;28;20514;-80
2023/05/01 04:54:56;;;;;;;4.70;3.90;;;8.60;99.90;;;;;;4975636;28;20283;-82
2023/05/01 04:57:24;;;;;;;4.20;3.70;;;8.60;99.90;;;;;;4975199;28;20700;-82
2023/05/01 04:59:51;;;;;;;5.07;4.60;;;8.70;99.90;;;;;;4973755;28;20259;-81
2023/05/01 05:02:18;;;;;;;5.40;3.87;;;8.70;99.90;;;;;;4975250;28;20196;-83
2023/05/01 05:04:45;;;;;;;5.47;3.77;;;8.80;99.90;;;;;;4973738;28;20206;-83
2023/05/01 05:07:13;;;;;;;7.40;5.13;;;8.80;99.90;;;;;;4974076;28;20708;-81
2023/05/01 05:09:39;;;;;;;6.80;4.83;;;8.90;99.90;;;;;;4974211;28;20499;-83
2023/05/01 05:12:06;;;;;;;6.53;4.17;;;8.90;99.90;;;;;;4974146;28;20227;-81
2023/05/01 05:14:35;;;;;;;6.43;4.57;;;8.90;99.90;;;;;;4973793;28;20296;-83
2023/05/01 05:17:02;;;;;;;6.00;4.03;;;9.00;99.90;;;;;;4973701;28;20197;-83
2023/05/01 05:19:28;;;;;;;5.37;4.33;;;9.10;99.90;;;;;;4973815;28;20753;-81
2023/05/01 05:21:55;;;;;;;6.47;4.00;;;9.20;99.90;;;;;;4973141;28;20219;-83
2023/05/01 05:24:22;;;;;;;4.57;4.07;;;9.30;99.90;;;;;;4974315;28;20312;-80
2023/05/01 05:26:49;;;;;;;5.03;4.47;;;9.40;99.90;;;;;;4974879;28;20287;-82
2023/05/01 05:29:16;;;;;;;6.93;5.23;;;9.50;99.90;;;;;;4973534;28;20251;-83
2023/05/01 05:31:44;;;;;;;7.23;5.13;;;9.60;99.90;;;;;;4974384;28;20617;-83
2023/05/01 05:34:11;;;;;;;7.33;5.87;;;9.70;99.90;;;;;;4974457;28;20279;-78
2023/05/01 05:36:38;;;;;;;5.87;4.70;;;9.80;99.90;;;;;;4973190;28;20237;-81
2023/05/01 05:39:05;;;;;;;6.07;4.60;;;9.90;99.90;;;;;;4974192;28;20655;-82
2023/05/01 05:41:32;;;;;;;5.87;4.67;;;10.00;99.90;;;;;;4973653;28;20679;-81
2023/05/01 05:43:59;;;;;;;5.20;4.70;;;10.10;99.90;;;;;;4973645;28;20204;-77
2023/05/01 05:46:26;;;;;;;5.93;4.17;;;10.10;99.90;;;;;;4974143;28;20207;-80
2023/05/01 05:48:54;;;;;;;6.33;4.67;;;10.20;99.90;;;;;;4973699;28;20244;-82
2023/05/01 05:51:21;;;;;;;5.17;4.20;;;10.30;99.90;;;;;;4973533;28;20215;-79
2023/05/01 05:53:48;;;;;;;6.87;5.00;;;10.30;99.90;;;;;;4973396;28;20251;-82
2023/05/01 05:56:15;;;;;;;5.80;4.37;;;10.40;99.90;;;;;;4972721;28;20609;-83
2023/05/01 05:58:42;;;;;;;6.80;4.70;;;10.40;99.90;;;;;;4973458;28;20256;-81
2023/05/01 06:01:10;;;;;;;6.97;4.30;;;10.50;99.90;;;;;;4972185;28;20300;-82
2023/05/01 06:03:37;;;;;;;4.97;4.07;;;10.60;99.90;;;;;;4972773;28;20204;-82
2023/05/01 06:06:06;;;;;;;6.00;4.43;;;10.60;99.90;;;;;;4972959;28;20598;-80
2023/05/01 06:08:34;;;;;;;5.67;4.50;;;10.70;99.90;;;;;;4974725;28;20291;-81
2023/05/01 06:11:01;;;;;;;6.47;4.93;;;10.70;99.90;;;;;;4973824;28;20694;-83
2023/05/01 06:13:27;;;;;;;6.10;4.67;;;10.80;99.90;;;;;;4974235;28;20291;-82
2023/05/01 06:15:55;;;;;;;8.70;5.63;;;10.80;99.90;;;;;;4974560;28;20224;-82
2023/05/01 06:18:22;;;;;;;7.47;5.93;;;10.80;99.90;;;;;;4974504;28;20251;-81
2023/05/01 06:20:48;;;;;;;7.23;4.83;;;10.80;99.90;;;;;;4955189;28;20324;-81
2023/05/01 06:23:17;;;;;;;6.97;5.17;;;10.90;99.90;;;;;;4955207;29;20296;-83
2023/05/01 06:25:44;;;;;;;7.43;5.17;;;10.90;99.90;;;;;;4953891;29;20205;-82
2023/05/01 06:28:11;;;;;;;8.43;5.10;;;10.90;99.90;;;;;;4954519;28;20216;-82
2023/05/01 06:30:38;;;;;;;6.33;4.70;;;11.00;99.90;;;;;;4963249;28;20207;-82
2023/05/01 06:33:05;;;;;;;7.70;4.47;;;11.00;99.90;;;;;;4973151;28;20207;-81
2023/05/01 06:35:32;;;;;;;6.53;4.10;;;11.00;99.90;;;;;;4972751;28;20211;-81
2023/05/01 06:37:59;;;;;;;5.57;4.50;;;11.10;99.90;;;;;;4969668;28;20221;-81
2023/05/01 06:40:27;;;;;;;9.07;4.47;;;11.10;99.90;;;;;;4970436;28;20315;-82
2023/05/01 06:42:54;;;;;;;5.30;4.17;;;11.10;99.90;;;;;;4971466;28;20209;-80
2023/05/01 06:45:21;;;;;;;5.80;3.83;;;11.20;99.90;;;;;;4972256;28;20209;-76
2023/05/01 06:47:48;;;;;;;6.37;4.63;;;11.20;99.90;;;;;;4972958;28;20240;-76
2023/05/01 06:50:15;;;;;;;13.90;5.13;;;11.20;99.90;;;;;;4956092;28;20362;-76
2023/05/01 06:52:42;;;;;;;5.40;3.77;;;11.20;99.90;;;;;;4951776;28;20288;-76
2023/05/01 06:55:09;;;;;;;5.67;4.23;;;11.30;99.90;;;;;;4953836;28;20296;-76
2023/05/01 06:57:38;;;;;;;7.67;4.80;;;11.30;99.90;;;;;;4952855;29;20236;-75
2023/05/01 07:00:07;;;;;;;6.37;4.07;;;11.30;99.90;;;;;;4952446;28;20221;-76
2023/05/01 07:02:35;;;;;;;8.37;4.80;;;11.40;99.90;;;;;;4953129;28;20219;-76
2023/05/01 07:05:02;;;;;;;9.20;4.83;;;11.40;99.90;;;;;;4956686;28;20233;-76
2023/05/01 07:07:30;;;;;;;5.83;3.83;;;11.40;99.90;;;;;;4955181;28;20216;-76
2023/05/01 07:09:57;;;;;;;7.13;4.70;;;11.50;99.90;;;;;;4955838;29;20206;-76
2023/05/01 07:12:24;;;;;;;6.07;4.63;;;11.50;99.90;;;;;;4956232;29;20213;-81
2023/05/01 07:14:52;;;;;;;6.37;4.20;;;11.50;99.90;;;;;;4953762;29;20273;-81
2023/05/01 07:17:19;;;;;;;7.63;4.73;;;11.60;99.90;;;;;;4957119;29;20292;-79
2023/05/01 07:19:45;;;;;;;5.87;4.30;;;11.60;99.90;;;;;;4956157;29;20312;-79
2023/05/01 07:22:12;;;;;;;5.77;4.37;;;11.70;99.90;;;;;;4956742;29;20284;-77
2023/05/01 07:24:39;;;;;;;7.53;4.90;;;11.70;99.90;;;;;;4956690;29;20293;-77
2023/05/01 07:27:06;;;;;;;6.40;4.60;;;11.80;99.90;;;;;;4947708;29;20210;-77
2023/05/01 07:29:33;;;;;;;4.67;3.80;;;11.80;99.90;;;;;;4955160;28;20292;-75
2023/05/01 07:32:02;;;;;;;5.60;4.33;;;11.90;99.90;;;;;;4955225;28;20201;-76
2023/05/01 07:34:29;;;;;;;9.33;5.00;;;11.90;99.90;;;;;;4955996;29;20301;-81
2023/05/01 07:36:56;;;;;;;7.97;4.33;;;11.90;99.90;;;;;;4955876;29;20209;-77
2023/05/01 07:39:23;;;;;;;4.50;4.07;;;12.00;99.90;;;;;;4952493;28;20333;-78
2023/05/01 07:41:50;;;;;;;10.23;5.07;;;12.00;99.90;;;;;;4955675;28;20252;-79
2023/05/01 07:44:17;;;;;;;8.00;4.73;;;12.10;99.90;;;;;;4952444;28;20205;-76
2023/05/01 07:46:43;;;;;;;7.37;4.03;;;12.10;99.90;;;;;;4963452;28;20522;-80
2023/05/01 07:49:12;;;;;;;6.20;4.03;;;12.20;99.90;;;;;;4962548;28;20232;-78
2023/05/01 07:51:38;;;;;;;4.90;3.57;;;12.20;99.90;;;;;;4959208;28;20304;-80
2023/05/01 07:54:05;;;;;;;5.07;3.90;;;12.30;99.90;;;;;;4961309;28;20221;-80
2023/05/01 07:56:32;;;;;;;7.50;4.80;;;12.30;99.90;;;;;;4964990;28;20288;-78
2023/05/01 07:58:59;;;;;;;5.50;4.03;;;12.30;99.90;;;;;;4954703;28;20209;-76
2023/05/01 08:01:26;;;;;;;7.13;4.23;;;12.40;99.90;;;;;;4960666;28;20236;-77
2023/05/01 08:03:53;;;;;;;9.50;5.33;;;12.50;99.90;;;;;;4968497;28;20288;-76
2023/05/01 08:06:21;;;;;;;8.83;5.30;;;12.60;99.90;;;;;;4951886;28;20206;-79
2023/05/01 08:08:48;;;;;;;9.97;5.07;;;12.70;99.90;;;;;;4955905;29;20292;-80
2023/05/01 08:11:15;;;;;;;11.37;5.53;;;12.80;99.90;;;;;;4954960;29;20212;-75
2023/05/01 08:13:42;;;;;;;8.07;4.90;;;12.80;99.90;;;;;;4954500;28;20251;-76
2023/05/01 08:16:09;;;;;;;6.60;4.30;;;12.90;99.90;;;;;;4954896;28;20202;-76
2023/05/01 08:18:36;;;;;;;5.83;4.40;;;12.90;99.90;;;;;;4953720;29;20208;-75
2023/05/01 08:21:03;;;;;;;9.27;5.40;;;13.00;99.90;;;;;;4955451;29;20580;-75
2023/05/01 08:23:31;;;;;;;9.33;6.03;;;13.00;99.90;;;;;;4955240;29;20673;-75
2023/05/01 08:25:58;;;;;;;9.43;6.30;;;13.20;99.90;;;;;;4954197;29;20202;-76
2023/05/01 08:28:25;;;;;;;10.30;5.73;;;13.20;99.90;;;;;;4953682;29;20704;-77
2023/05/01 08:30:52;;;;;;;16.77;6.70;;;13.20;99.90;;;;;;4954319;29;20212;-76
2023/05/01 08:33:19;;;;;;;12.57;6.03;;;13.30;99.90;;;;;;4953907;28;20619;-75
2023/05/01 08:35:46;;;;;;;12.37;6.63;;;13.30;99.90;;;;;;4955245;29;20204;-77
2023/05/01 08:38:12;;;;;;;16.20;7.10;;;13.40;99.90;;;;;;4953581;28;20223;-76
2023/05/01 08:40:43;;;;;;;11.75;6.55;;;13.50;99.90;;;;;;4954738;29;20337;-77
2023/05/01 08:43:11;;;;;;;11.60;6.57;;;13.50;99.90;;;;;;4955188;29;20232;-76
2023/05/01 08:45:39;;;;;;;10.83;5.43;;;13.50;99.90;;;;;;4953445;29;20252;-75
2023/05/01 08:48:07;;;;;;;10.03;5.80;;;13.50;99.90;;;;;;4954705;29;20201;-76
2023/05/01 08:50:36;;;;;;;16.20;6.50;;;13.50;99.90;;;;;;4970629;28;20319;-76
2023/05/01 08:53:04;;;;;;;11.47;5.47;;;13.50;99.90;;;;;;4971600;28;20471;-75
2023/05/01 08:55:32;;;;;;;10.20;5.37;;;13.60;99.90;;;;;;4973494;28;20256;-77
2023/05/01 08:58:02;;;;;;;8.07;4.67;;;13.60;99.90;;;;;;4973663;28;20216;-75
2023/05/01 09:00:30;;;;;;;11.27;5.47;;;13.70;99.90;;;;;;4972267;28;20743;-77
2023/05/01 09:03:01;;;;;;;6.47;4.28;;;13.70;99.90;;;;;;4973998;28;20215;-76
2023/05/01 09:05:28;;;;;;;9.50;4.73;;;13.80;99.90;;;;;;4973213;28;20505;-75
2023/05/01 09:07:55;;;;;;;9.30;4.70;;;13.80;99.90;;;;;;4972392;28;20197;-75
2023/05/01 09:10:23;;;;;;;4.83;4.13;;;13.90;99.90;;;;;;4973549;28;20201;-73
2023/05/01 09:12:55;;;;;;;7.00;4.20;;;14.00;93.20;;;;;;4973568;28;20200;-75
2023/05/01 09:15:25;;;;;;;8.17;4.27;;;14.10;80.90;;;;;;4972556;28;20540;-75
2023/05/01 09:17:52;;;;;;;6.73;4.20;;;14.20;9.30;;;;;;4954515;29;20207;-76
2023/05/01 09:20:19;;;;;;;6.00;3.95;;;14.30;1.00;;;;;;4953853;29;20232;-76
2023/05/01 09:22:46;;;;;;;9.05;4.10;;;14.40;1.00;;;;;;4955626;28;20540;-76
2023/05/01 09:25:13;;;;;;;7.10;4.28;;;14.50;1.00;;;;;;4971125;28;20231;-75
2023/05/01 09:27:40;;;;;;;6.27;4.10;;;14.60;1.00;;;;;;4970742;28;20207;-75
2023/05/01 09:30:08;;;;;;;12.77;4.55;;;14.80;1.00;;;;;;4971682;28;20193;-78
2023/05/01 09:32:36;;;;;;;8.98;3.75;;;14.90;1.00;;;;;;4959070;28;20205;-76
2023/05/01 09:35:11;;;;;;;8.00;3.70;;;15.10;1.00;;;;;;4966738;28;20220;-76
2023/05/01 09:37:38;;;;;;;7.80;3.78;;;15.30;1.00;;;;;;4972721;28;20252;-75
2023/05/01 09:40:07;;;;;;;6.50;3.70;;;15.50;1.00;;;;;;4972969;28;20215;-74
2023/05/01 09:42:36;;;;;;;6.75;3.22;;;15.60;99.90;;;;;;4970769;28;20287;-75
2023/05/01 09:45:04;;;;;;;7.72;3.47;;;15.60;99.90;;;;;;4971905;28;20211;-75
2023/05/01 09:47:32;;;;;;;5.93;3.30;;;15.70;1.00;;;;;;4972568;28;20206;-77
2023/05/01 09:50:01;;;;;;;5.72;3.08;;;15.80;99.90;;;;;;4971712;28;20280;-76
2023/05/01 09:52:28;;;;;;;5.32;2.78;;;15.90;99.90;;;;;;4971204;28;20570;-76
2023/05/01 09:55:15;;;;;;;7.05;3.40;;;16.00;1.00;;;;;;4972218;28;20605;-75
2023/05/01 09:57:42;;;;;;;6.03;3.15;;;16.00;99.90;;;;;;4972089;28;20211;-76
2023/05/01 10:00:11;;;;;;;5.47;3.65;;;16.10;1.00;;;;;;4972067;28;20244;-75
2023/05/01 10:02:38;;;;;;;10.77;3.90;;;16.30;99.90;;;;;;4971830;28;20259;-76
2023/05/01 10:05:09;;;;;;;6.90;3.38;;;16.30;99.90;;;;;;4973064;28;20697;-76
2023/05/01 10:07:36;;;;;;;4.90;3.17;;;16.30;99.90;;;;;;4971927;28;20235;-75
2023/05/01 10:10:18;;;;;;;4.85;3.58;;;16.40;99.90;;;;;;4971350;28;20205;-75
2023/05/01 10:12:46;;;;;;;5.18;3.88;;;16.50;99.90;;;;;;4968453;28;20292;-74
2023/05/01 10:15:13;;;;;;;5.65;4.38;;;16.50;1.00;;;;;;4970845;28;20216;-76
2023/05/01 10:17:42;;;;;;;6.22;4.13;;;16.60;1.00;;;;;;4972775;28;20203;-81
2023/05/01 10:20:12;;;;;;;6.80;4.72;;;16.70;1.00;;;;;;4971733;28;20213;-80
2023/05/01 10:22:39;;;;;;;7.13;4.93;;;16.90;1.00;;;;;;4972814;28;20236;-81
2023/05/01 10:25:09;;;;;;;7.03;4.63;;;17.10;1.00;;;;;;4972849;28;20219;-77
2023/05/01 10:27:37;;;;;;;6.13;5.50;;;17.30;1.00;;;;;;4974611;28;20201;-80
2023/05/01 10:30:06;;;;;;;5.20;4.25;;;17.40;1.00;;;;;;4971275;28;20193;-77
2023/05/01 10:32:33;;;;;;;6.35;5.18;;;17.50;1.00;;;;;;4976847;28;20216;-82
2023/05/01 10:35:04;;;;;;;8.48;5.80;;;17.50;1.00;;;;;;4973742;28;20232;-78
2023/05/01 10:37:38;;;;;;;6.68;5.53;;;17.50;1.00;;;;;;4973546;28;20196;-82
2023/05/01 10:40:52;;;;;;;7.78;5.80;;;17.40;1.00;;;;;;4977089;28;20200;-80
2023/05/01 10:43:24;;;;;;;7.22;5.45;;;17.20;1.00;;;;;;4962256;28;20671;-83
2023/05/01 10:45:52;;;;;;;11.68;5.88;;;16.90;99.90;;;;;;4976426;28;20838;-82
2023/05/01 10:48:54;;;;;;;7.07;5.15;;;16.70;99.90;;;;;;4977301;28;20208;-82
2023/05/01 10:51:22;;;;;;;8.85;6.07;;;16.60;1.00;;;;;;4977646;28;20223;-83
2023/05/01 10:54:25;;;;;;;7.45;5.88;;;16.50;1.00;;;;;;4976427;28;20201;-76
2023/05/01 10:56:53;;;;;;;7.53;5.88;;;16.30;1.00;;;;;;4977184;28;20231;-83
2023/05/01 10:59:20;;;;;;;6.93;5.65;;;16.10;1.00;;;;;;4977336;28;20610;-83
2023/05/01 11:01:50;;;;;;;10.63;6.05;;;15.90;1.00;;;;;;4977265;28;20303;-82
2023/05/01 11:04:49;;;;;;;6.50;5.70;;;15.80;99.90;;;;;;4977123;28;20557;-81
2023/05/01 11:07:18;;;;;;;6.50;5.82;;;15.60;99.90;;;;;;4976628;28;20271;-83
2023/05/01 11:09:52;;;;;;;7.32;6.13;;;15.60;99.90;;;;;;4976653;28;20196;-82
2023/05/01 11:12:53;;;;;;;7.55;6.75;;;15.50;99.90;;;;;;4967579;28;20604;-81
2023/05/01 11:15:31;;;;;;;7.82;6.40;;;15.40;99.90;;;;;;4969887;28;20263;-79
2023/05/01 11:17:58;;;;;;;7.10;6.40;;;15.30;99.90;;;;;;4974871;28;20205;-82
2023/05/01 11:20:53;;;;;;;6.75;6.10;;;15.30;99.90;;;;;;4977777;28;20264;-82
2023/05/01 11:23:21;;;;;;;9.02;7.03;;;15.30;99.90;;;;;;4963892;28;20209;-82
2023/05/01 11:25:50;;;;;;;7.85;7.05;;;15.30;99.90;;;;;;4977495;28;20631;-84
2023/05/01 11:28:24;;;;;;;8.30;6.80;;;15.20;99.90;;;;;;4978692;28;20303;-84
2023/05/01 11:30:51;;;;;;;10.48;8.25;;;15.20;99.90;;;;;;4977220;28;20193;-83
2023/05/01 11:33:24;;;;;;;9.95;6.97;;;15.10;99.90;;;;;;4975868;28;20224;-80
2023/05/01 11:35:59;;;;;;;10.48;8.05;;;15.10;99.90;;;;;;4976761;28;20493;-84
2023/05/01 11:38:26;;;;;;;9.43;8.43;;;15.10;99.90;;;;;;4974643;28;20227;-82
2023/05/01 11:40:58;;;;;;;9.73;7.53;;;15.10;99.90;;;;;;4977628;28;20246;-85
2023/05/01 11:43:25;;;;;;;8.55;7.65;;;15.10;99.90;;;;;;4977009;28;20205;-81
2023/05/01 11:45:55;;;;;;;8.70;7.45;;;15.10;99.90;;;;;;4967520;28;20310;-83
2023/05/01 11:48:22;;;;;;;8.80;6.78;;;15.10;99.90;;;;;;4974058;28;20262;-84
2023/05/01 11:50:49;;;;;;;9.65;8.57;;;15.20;99.90;;;;;;4983141;28;20235;-86
2023/05/01 11:53:16;;;;;;;9.50;7.60;;;15.20;99.90;;;;;;4985281;28;20282;-85
2023/05/01 11:55:43;;;;;;;9.13;8.23;;;15.30;99.90;;;;;;4977994;28;20212;-83
2023/05/01 11:58:12;;;;;;;10.75;7.70;;;15.30;99.90;;;;;;4982456;28;20291;-85
2023/05/01 12:00:41;;;;;;;7.95;7.15;;;15.20;99.90;;;;;;4973868;28;20200;-80
2023/05/01 12:03:10;;;;;;;8.38;6.93;;;15.20;99.90;;;;;;4983889;28;20579;-83
2023/05/01 12:05:38;;;;;;;8.73;7.30;;;15.30;99.90;;;;;;4981470;28;20208;-82
2023/05/01 12:08:10;;;;;;;7.05;6.32;;;15.20;99.90;;;;;;4983948;28;20472;-80
2023/05/01 12:10:37;;;;;;;6.85;5.28;;;15.30;99.90;;;;;;4980574;28;20192;-83
2023/05/01 12:13:05;;;;;;;8.85;7.00;;;15.30;99.90;;;;;;4984464;28;20223;-83
2023/05/01 12:15:36;;;;;;;11.65;7.50;;;15.30;99.90;;;;;;4978229;28;20220;-80
2023/05/01 12:18:04;;;;;;;11.00;8.05;;;15.30;99.90;;;;;;4978102;28;20196;-83
2023/05/01 12:20:38;;;;;;;7.20;5.93;;;15.30;99.90;;;;;;4979833;28;20204;-78
2023/05/01 12:23:05;;;;;;;9.40;8.50;;;15.50;99.90;;;;;;4978492;28;20265;-80
2023/05/01 12:25:33;;;;;;;8.02;6.85;;;15.40;99.90;;;;;;4984171;28;20200;-81
2023/05/01 12:28:03;;;;;;;6.63;5.82;;;15.40;99.90;;;;;;4981368;28;20231;-83
2023/05/01 12:30:30;;;;;;;7.68;6.88;;;15.60;99.90;;;;;;4980115;28;20694;-82
2023/05/01 12:32:59;;;;;;;10.00;8.07;;;15.80;99.90;;;;;;4980841;28;20288;-84
2023/05/01 12:35:30;;;;;;;7.32;6.53;;;15.90;1.00;;;;;;4986930;28;20208;-83
2023/05/01 12:37:58;;;;;;;7.93;6.70;;;16.00;15.30;;;;;;4975513;28;20225;-83
2023/05/01 12:40:26;;;;;;;8.32;7.53;;;16.30;59.60;;;;;;4987779;28;20211;-78
2023/05/01 12:42:57;;;;;;;7.40;6.45;;;16.80;1.00;;;;;;4978761;28;20240;-82
2023/05/01 12:45:25;;;;;;;7.85;7.00;;;17.30;3.80;;;;;;4985061;28;20478;-79
2023/05/01 12:47:52;;;;;;;5.38;4.78;;;17.50;1.00;;;;;;4972916;28;20205;-79
2023/05/01 12:50:21;;;;;;;7.00;5.90;;;17.70;99.90;;;;;;4989313;28;20232;-84
2023/05/01 12:52:49;;;;;;;11.13;6.97;;;17.90;99.90;;;;;;4994295;28;20208;-82
2023/05/01 12:55:16;;;;;;;7.15;6.22;;;18.00;1.00;;;;;;4981127;28;20208;-81
2023/05/01 12:57:53;;;;;;;6.45;5.82;;;18.10;1.00;;;;;;4975084;28;20193;-79
2023/05/01 13:00:20;;;;;;;5.15;4.35;;;18.00;1.00;;;;;;4971434;28;20208;-81